createdAt,value
2023-04-02T00:01:46.075Z,81.09
2023-04-02T00:04:22.715Z,80.91
2023-04-02T00:06:54.548Z,81.00
2023-04-02T00:09:26.056Z,80.78
2023-04-02T00:11:55.962Z,80.80
2023-04-02T00:14:27.445Z,80.67
2023-04-02T00:16:54.638Z,80.80
2023-04-02T00:19:30.803Z,80.65
2023-04-02T00:21:57.833Z,80.65
2023-04-02T00:24:24.668Z,80.76
2023-04-02T00:26:52.126Z,80.92
2023-04-02T00:29:19.107Z,81.02
2023-04-02T00:31:47.182Z,80.74
2023-04-02T00:34:21.776Z,81.03
2023-04-02T00:36:49.397Z,80.85
2023-04-02T00:39:19.029Z,80.87
2023-04-02T00:41:47.115Z,80.82
2023-04-02T00:44:15.858Z,80.97
2023-04-02T00:46:47.509Z,80.94
2023-04-02T00:49:21.962Z,80.80
2023-04-02T00:51:50.563Z,80.57
2023-04-02T00:54:18.752Z,80.68
2023-04-02T00:56:46.137Z,80.91
2023-04-02T00:59:17.629Z,80.77
2023-04-02T01:01:44.429Z,80.66
2023-04-02T01:04:32.870Z,80.36
2023-04-02T01:07:00.041Z,80.30
2023-04-02T01:09:36.180Z,80.34
2023-04-02T01:12:21.315Z,80.65
2023-04-02T01:15:01.036Z,80.42
2023-04-02T01:17:49.327Z,80.20
2023-04-02T01:20:31.459Z,80.12
2023-04-02T01:23:02.777Z,80.02
2023-04-02T01:25:32.486Z,79.87
2023-04-02T01:28:19.910Z,79.29
2023-04-02T01:30:53.586Z,79.19
2023-04-02T01:33:25.775Z,78.99
2023-04-02T01:35:55.796Z,79.31
2023-04-02T01:38:25.962Z,79.17
2023-04-02T01:40:55.432Z,79.11
2023-04-02T01:43:33.972Z,79.15
2023-04-02T01:46:05.370Z,78.68
2023-04-02T01:52:19.944Z,78.43
2023-04-02T01:54:47.660Z,78.59
2023-04-02T01:57:14.413Z,78.64
2023-04-02T01:59:41.465Z,78.09
2023-04-02T02:02:12.658Z,77.94
2023-04-02T02:04:40.868Z,77.80
2023-04-02T02:07:14.616Z,77.86
2023-04-02T02:09:43.447Z,77.87
2023-04-02T02:12:14.146Z,77.74
2023-04-02T02:14:45.910Z,77.72
2023-04-02T02:17:15.832Z,78.03
2023-04-02T02:19:43.936Z,78.16
2023-04-02T02:22:29.658Z,78.03
2023-04-02T02:24:56.867Z,77.95
2023-04-02T02:27:23.574Z,77.86
2023-04-02T02:30:07.630Z,77.80
2023-04-02T02:32:34.794Z,77.96
2023-04-02T02:35:01.616Z,77.85
2023-04-02T02:37:29.916Z,77.99
2023-04-02T02:39:58.075Z,77.86
2023-04-02T02:42:31.333Z,77.89
2023-04-02T02:44:58.910Z,77.78
2023-04-02T02:47:27.059Z,77.87
2023-04-02T02:49:55.616Z,77.87
2023-04-02T02:52:28.131Z,77.96
2023-04-02T02:55:07.119Z,77.96
2023-04-02T02:57:47.516Z,77.99
2023-04-02T03:00:16.298Z,77.84
2023-04-02T03:02:43.702Z,78.13
2023-04-02T03:05:20.863Z,78.04
2023-04-02T03:07:50.085Z,78.25
2023-04-02T03:10:19.226Z,78.04
2023-04-02T03:12:48.089Z,78.04
2023-04-02T03:15:36.098Z,78.14
2023-04-02T03:18:04.070Z,78.00
2023-04-02T03:20:40.667Z,78.27
2023-04-02T03:23:19.189Z,78.42
2023-04-02T03:25:49.468Z,78.26
2023-04-02T03:28:17.899Z,78.23
2023-04-02T03:30:46.775Z,78.22
2023-04-02T03:33:26.787Z,78.35
2023-04-02T03:35:54.791Z,78.07
2023-04-02T03:38:28.835Z,77.96
2023-04-02T03:41:04.259Z,77.96
2023-04-02T03:43:37.579Z,77.98
2023-04-02T03:46:24.901Z,77.76
2023-04-02T03:48:53.668Z,77.85
2023-04-02T03:51:21.931Z,77.66
2023-04-02T03:53:49.959Z,77.56
2023-04-02T03:56:26.986Z,77.75
2023-04-02T03:58:55.907Z,77.54
2023-04-02T04:01:30.083Z,77.80
2023-04-02T04:03:58.238Z,77.68
2023-04-02T04:06:27.755Z,77.67
2023-04-02T04:08:55.373Z,77.61
2023-04-02T04:11:24.762Z,77.64
2023-04-02T04:14:10.521Z,78.05
2023-04-02T04:16:41.849Z,78.17
2023-04-02T04:19:30.074Z,77.88
2023-04-02T04:22:15.313Z,78.07
2023-04-02T04:24:45.853Z,78.12
2023-04-02T04:27:36.285Z,78.03
2023-04-02T04:30:20.451Z,77.94
2023-04-02T04:32:51.312Z,78.20
2023-04-02T04:35:26.952Z,77.96
2023-04-02T04:37:59.278Z,78.10
2023-04-02T04:40:27.624Z,78.31
2023-04-02T04:42:59.478Z,78.22
2023-04-02T04:45:43.779Z,78.26
2023-04-02T04:48:20.762Z,78.25
2023-04-02T04:50:54.042Z,78.21
2023-04-02T04:53:22.002Z,78.04
2023-04-02T04:56:06.019Z,78.11
2023-04-02T04:58:46.484Z,78.02
2023-04-02T05:01:24.955Z,78.12
2023-04-02T05:03:58.236Z,78.14
2023-04-02T05:06:34.535Z,78.09
2023-04-02T05:09:06.135Z,78.02
2023-04-02T05:11:35.204Z,77.90
2023-04-02T05:14:06.822Z,77.76
2023-04-02T05:16:39.750Z,77.92
2023-04-02T05:19:09.304Z,77.75
2023-04-02T05:21:39.189Z,77.83
2023-04-02T05:24:30.699Z,77.76
2023-04-02T05:26:58.652Z,77.60
2023-04-02T05:29:27.011Z,77.72
2023-04-02T05:31:55.807Z,77.54
2023-04-02T05:34:24.374Z,77.55
2023-04-02T05:36:55.801Z,77.83
2023-04-02T05:39:26.586Z,77.88
2023-04-02T05:42:00.146Z,77.82
2023-04-02T05:44:45.884Z,77.40
2023-04-02T05:47:19.463Z,77.25
2023-04-02T05:49:48.987Z,77.34
2023-04-02T05:52:26.803Z,76.96
2023-04-02T05:55:14.086Z,76.66
2023-04-02T05:58:01.116Z,76.51
2023-04-02T06:00:39.613Z,76.52
2023-04-02T06:03:32.680Z,76.49
2023-04-02T06:06:01.797Z,76.13
2023-04-02T06:08:36.204Z,75.97
2023-04-02T06:11:08.998Z,75.78
2023-04-02T06:13:39.488Z,75.80
2023-04-02T06:16:08.383Z,75.43
2023-04-02T06:18:36.149Z,75.22
2023-04-02T06:21:08.337Z,75.41
2023-04-02T06:23:38.838Z,75.13
2023-04-02T06:26:24.182Z,75.19
2023-04-02T06:28:55.152Z,74.75
2023-04-02T06:31:25.979Z,75.03
2023-04-02T06:34:03.329Z,74.56
2023-04-02T06:36:34.627Z,74.65
2023-04-02T06:39:08.877Z,74.32
2023-04-02T06:41:38.890Z,73.77
2023-04-02T06:44:28.403Z,73.37
2023-04-02T06:47:21.180Z,72.96
2023-04-02T06:49:51.657Z,73.23
2023-04-02T06:52:21.748Z,72.72
2023-04-02T06:54:49.280Z,72.71
2023-04-02T06:57:17.390Z,72.57
2023-04-02T06:59:47.172Z,72.69
2023-04-02T07:02:26.261Z,72.30
2023-04-02T07:05:02.195Z,71.64
2023-04-02T07:07:30.835Z,71.22
2023-04-02T07:09:59.304Z,71.11
2023-04-02T07:18:33.753Z,70.15
2023-04-02T07:21:04.802Z,70.12
2023-04-02T07:30:05.932Z,69.40
2023-04-02T07:32:32.984Z,69.55
2023-04-02T07:34:59.887Z,68.91
2023-04-02T07:37:26.834Z,68.84
2023-04-02T07:39:53.933Z,68.14
2023-04-02T07:42:20.787Z,67.77
2023-04-02T07:44:47.850Z,67.91
2023-04-02T07:47:14.953Z,67.91
2023-04-02T07:49:42.395Z,67.95
2023-04-02T07:52:13.023Z,68.51
2023-04-02T07:54:40.237Z,67.98
2023-04-02T08:03:56.376Z,68.42
2023-04-02T08:06:46.032Z,67.86
2023-04-02T08:09:13.366Z,67.93
2023-04-02T08:11:42.368Z,67.98
2023-04-02T08:14:09.822Z,68.30
2023-04-02T08:16:50.021Z,68.38
2023-04-02T08:19:17.065Z,68.04
2023-04-02T08:21:44.031Z,67.90
2023-04-02T08:24:11.145Z,68.02
2023-04-02T08:26:38.204Z,68.17
2023-04-02T08:29:05.098Z,68.42
2023-04-02T08:31:32.544Z,68.59
2023-04-02T08:33:59.768Z,68.78
2023-04-02T08:36:30.400Z,68.54
2023-04-02T08:38:57.376Z,68.76
2023-04-02T08:41:32.652Z,68.27
2023-04-02T08:44:18.597Z,68.29
2023-04-02T08:46:49.909Z,67.79
2023-04-02T08:49:17.663Z,67.81
2023-04-02T08:54:56.456Z,67.84
2023-04-02T08:57:23.390Z,67.35
2023-04-02T08:59:51.576Z,67.08
2023-04-02T09:02:25.087Z,67.06
2023-04-02T09:05:22.894Z,66.94
2023-04-02T09:07:51.386Z,66.09
2023-04-02T09:10:18.842Z,65.63
2023-04-02T09:12:47.346Z,65.21
2023-04-02T09:15:21.840Z,65.30
2023-04-02T09:17:54.446Z,65.47
2023-04-02T09:20:26.510Z,65.27
2023-04-02T09:22:54.093Z,65.53
2023-04-02T09:25:22.039Z,65.23
2023-04-02T09:27:50.213Z,65.72
2023-04-02T09:30:30.086Z,65.36
2023-04-02T09:32:58.309Z,65.41
2023-04-02T09:35:26.831Z,65.17
2023-04-02T09:38:13.175Z,65.11
2023-04-02T09:40:43.204Z,64.47
2023-04-02T09:43:17.328Z,63.81
2023-04-02T09:45:45.578Z,63.31
2023-04-02T09:48:18.196Z,62.81
2023-04-02T09:50:45.044Z,62.91
2023-04-02T09:53:29.471Z,63.31
2023-04-02T09:56:08.825Z,63.02
2023-04-02T09:58:36.127Z,62.74
2023-04-02T10:01:02.987Z,63.11
2023-04-02T10:03:30.520Z,62.90
2023-04-02T10:06:14.353Z,62.49
2023-04-02T10:08:42.675Z,62.85
2023-04-02T10:11:11.612Z,63.14
2023-04-02T10:14:01.747Z,63.25
2023-04-02T10:16:42.475Z,63.26
2023-04-02T10:19:35.911Z,63.03
2023-04-02T10:22:07.378Z,62.62
2023-04-02T10:24:34.146Z,62.55
2023-04-02T10:27:03.109Z,62.31
2023-04-02T10:29:40.165Z,62.49
2023-04-02T10:32:27.413Z,62.42
2023-04-02T10:35:03.836Z,62.04
2023-04-02T10:37:39.868Z,62.07
2023-04-02T10:40:29.573Z,62.17
2023-04-02T10:43:10.879Z,62.21
2023-04-02T10:45:49.796Z,62.32
2023-04-02T10:48:29.544Z,61.90
2023-04-02T10:51:00.913Z,61.52
2023-04-02T10:53:49.273Z,61.34
2023-04-02T10:56:16.256Z,61.89
2023-04-02T10:58:47.457Z,61.64
2023-04-02T11:01:18.208Z,61.67
2023-04-02T11:03:47.117Z,61.76
2023-04-02T11:06:18.092Z,62.13
2023-04-02T11:08:48.096Z,62.47
2023-04-02T11:11:16.063Z,61.81
2023-04-02T11:13:46.018Z,60.98
2023-04-02T11:16:15.905Z,60.70
2023-04-02T11:18:43.073Z,60.92
2023-04-02T11:21:25.148Z,59.90
2023-04-02T11:24:15.265Z,59.44
2023-04-02T11:26:42.484Z,59.47
2023-04-02T11:29:14.365Z,59.28
2023-04-02T11:31:41.959Z,58.02
2023-04-02T11:34:17.124Z,58.24
2023-04-02T11:36:53.213Z,58.44
2023-04-02T11:39:38.788Z,58.23
2023-04-02T11:42:06.692Z,58.53
2023-04-02T11:44:33.551Z,58.78
2023-04-02T11:47:20.007Z,58.80
2023-04-02T11:50:00.527Z,57.94
2023-04-02T11:52:38.327Z,58.05
2023-04-02T11:55:15.732Z,58.53
2023-04-02T11:57:56.545Z,58.49
2023-04-02T12:00:29.411Z,58.31
2023-04-02T12:03:00.195Z,57.77
2023-04-02T12:05:37.405Z,57.93
2023-04-02T12:08:05.646Z,57.38
2023-04-02T12:10:33.349Z,56.85
2023-04-02T12:13:00.255Z,57.51
2023-04-02T12:15:32.720Z,57.40
2023-04-02T12:18:04.607Z,57.47
2023-04-02T12:20:31.744Z,57.46
2023-04-02T12:22:58.619Z,57.16
2023-04-02T12:25:29.742Z,56.43
2023-04-02T12:28:12.042Z,56.11
2023-04-02T12:30:39.174Z,55.48
2023-04-02T12:33:15.324Z,55.82
2023-04-02T12:35:42.128Z,55.51
2023-04-02T12:38:19.007Z,55.94
2023-04-02T12:40:56.014Z,56.64
2023-04-02T12:43:29.965Z,56.63
2023-04-02T12:45:58.696Z,56.71
2023-04-02T12:48:25.627Z,56.22
2023-04-02T12:50:52.412Z,55.96
2023-04-02T12:53:21.727Z,56.35
2023-04-02T12:55:49.294Z,56.01
2023-04-02T12:58:26.855Z,56.01
2023-04-02T13:00:54.101Z,56.33
2023-04-02T13:03:22.471Z,56.21
2023-04-02T13:05:53.694Z,56.54
2023-04-02T13:08:23.324Z,56.44
2023-04-02T13:10:54.576Z,56.91
2023-04-02T13:13:23.144Z,57.10
2023-04-02T13:16:00.380Z,56.68
2023-04-02T13:18:28.021Z,56.54
2023-04-02T13:21:29.014Z,56.38
2023-04-02T13:23:53.040Z,56.29
2023-04-02T13:26:23.131Z,55.75
2023-04-02T13:29:17.363Z,55.21
2023-04-02T13:31:44.777Z,54.00
2023-04-02T13:34:12.150Z,54.50
2023-04-02T13:36:39.319Z,53.60
2023-04-02T13:39:06.738Z,53.20
2023-04-02T13:41:39.886Z,54.26
2023-04-02T13:44:07.340Z,54.85
2023-04-02T13:46:34.820Z,55.65
2023-04-02T13:49:04.295Z,55.56
2023-04-02T13:51:34.199Z,55.61
2023-04-02T13:54:01.249Z,54.97
2023-04-02T13:56:28.450Z,54.72
2023-04-02T13:58:55.454Z,54.56
2023-04-02T14:01:22.413Z,55.26
2023-04-02T14:03:49.415Z,55.50
2023-04-02T14:06:26.642Z,54.62
2023-04-02T14:09:04.979Z,54.09
2023-04-02T14:11:39.117Z,53.77
2023-04-02T14:14:24.707Z,53.85
2023-04-02T14:17:00.016Z,54.40
2023-04-02T14:19:39.461Z,54.95
2023-04-02T14:22:10.591Z,55.53
2023-04-02T14:24:40.580Z,55.87
2023-04-02T14:27:13.736Z,55.39
2023-04-02T14:29:59.926Z,55.22
2023-04-02T14:32:32.489Z,54.56
2023-04-02T14:35:24.691Z,53.55
2023-04-02T14:38:04.400Z,54.00
2023-04-02T14:40:40.441Z,54.30
2023-04-02T14:43:17.660Z,54.83
2023-04-02T14:45:50.623Z,55.26
2023-04-02T14:48:21.777Z,55.35
2023-04-02T14:50:48.778Z,55.04
2023-04-02T14:53:20.840Z,54.93
2023-04-02T14:55:48.642Z,54.79
2023-04-02T14:58:17.173Z,55.29
2023-04-02T15:00:46.079Z,55.16
2023-04-02T15:03:17.325Z,55.65
2023-04-02T15:05:44.407Z,55.32
2023-04-02T15:08:21.246Z,54.65
2023-04-02T15:11:04.927Z,54.30
2023-04-02T15:13:36.192Z,54.48
2023-04-02T15:16:11.623Z,54.64
2023-04-02T15:18:38.872Z,54.10
2023-04-02T15:21:28.785Z,53.60
2023-04-02T15:24:01.934Z,52.51
2023-04-02T15:26:35.126Z,51.36
2023-04-02T15:29:25.959Z,49.51
2023-04-02T15:31:57.963Z,49.75
2023-04-02T15:34:32.629Z,50.32
2023-04-02T15:37:01.795Z,51.31
2023-04-02T15:39:30.122Z,52.09
2023-04-02T15:42:00.143Z,52.77
2023-04-02T15:44:28.264Z,52.33
2023-04-02T15:47:15.648Z,51.50
2023-04-02T15:49:44.414Z,50.30
2023-04-02T15:52:13.548Z,49.63
2023-04-02T15:54:52.188Z,49.27
2023-04-02T15:57:39.569Z,50.00
2023-04-02T16:00:30.811Z,50.66
2023-04-02T16:03:10.180Z,51.44
2023-04-02T16:05:40.442Z,50.93
2023-04-02T16:08:18.075Z,51.35
2023-04-02T16:10:47.206Z,51.66
2023-04-02T16:13:16.438Z,51.63
2023-04-02T16:15:48.302Z,51.14
2023-04-02T16:18:17.416Z,50.73
2023-04-02T16:20:44.898Z,49.91
2023-04-02T16:23:16.721Z,49.18
2023-04-02T16:25:57.676Z,48.37
2023-04-02T16:28:25.560Z,49.16
2023-04-02T16:30:55.195Z,49.58
2023-04-02T16:33:48.468Z,49.40
2023-04-02T16:36:21.761Z,48.86
2023-04-02T16:39:10.381Z,48.63
2023-04-02T16:41:41.528Z,49.08
2023-04-02T16:44:27.452Z,48.92
2023-04-02T16:47:03.212Z,48.15
2023-04-02T16:49:33.574Z,48.27
2023-04-02T16:52:19.197Z,48.25
2023-04-02T16:55:02.278Z,48.74
2023-04-02T16:57:29.185Z,49.49
2023-04-02T17:00:16.318Z,49.80
2023-04-02T17:03:02.200Z,50.47
2023-04-02T17:05:29.322Z,51.27
2023-04-02T17:08:03.475Z,51.94
2023-04-02T17:10:31.440Z,52.83
2023-04-02T17:13:02.406Z,53.58
2023-04-02T17:15:39.582Z,54.29
2023-04-02T17:18:11.212Z,55.08
2023-04-02T17:20:38.239Z,55.94
2023-04-02T17:23:05.875Z,55.85
2023-04-02T17:41:11.439Z,58.05
2023-04-02T17:43:54.338Z,58.67
2023-04-02T17:46:32.644Z,59.03
2023-04-02T17:49:01.358Z,59.68
2023-04-02T17:51:42.632Z,59.85
2023-04-02T17:54:16.528Z,59.96
2023-04-02T17:57:00.350Z,59.99
2023-04-02T17:59:33.328Z,60.81
2023-04-02T18:02:03.423Z,61.07
2023-04-02T18:04:33.470Z,61.06
2023-04-02T18:07:00.244Z,61.38
2023-04-02T18:09:30.274Z,61.64
2023-04-02T18:12:16.828Z,62.21
2023-04-02T18:15:02.246Z,62.15
2023-04-02T18:17:48.109Z,62.40
2023-04-02T18:20:34.123Z,62.59
2023-04-02T18:23:03.447Z,62.81
2023-04-02T18:25:47.881Z,63.42
2023-04-02T18:28:36.039Z,63.50
2023-04-02T18:31:21.866Z,63.63
2023-04-02T18:33:55.043Z,64.27
2023-04-02T18:36:34.164Z,64.24
2023-04-02T18:39:03.168Z,64.59
2023-04-02T18:42:02.768Z,64.71
2023-04-02T18:44:49.489Z,64.85
2023-04-02T18:47:21.350Z,64.87
2023-04-02T18:49:54.451Z,65.25
2023-04-02T18:52:21.844Z,65.21
2023-04-02T18:54:53.101Z,65.27
2023-04-02T18:57:22.482Z,65.41
2023-04-02T19:00:00.705Z,65.58
2023-04-02T19:02:43.397Z,65.82
2023-04-02T19:05:22.469Z,66.09
2023-04-02T19:07:51.019Z,66.17
2023-04-02T19:10:50.643Z,66.08
2023-04-02T19:13:18.429Z,65.98
2023-04-02T19:15:46.413Z,66.35
2023-04-02T19:18:33.107Z,66.49
2023-04-02T19:21:06.025Z,66.59
2023-04-02T19:24:07.376Z,66.32
2023-04-02T19:26:44.470Z,66.50
2023-04-02T19:29:37.742Z,66.68
2023-04-02T19:32:04.700Z,66.76
2023-04-02T19:34:35.035Z,67.25
2023-04-02T19:37:06.670Z,67.22
2023-04-02T19:39:33.454Z,67.54
2023-04-02T19:42:02.623Z,67.43
2023-04-02T19:44:29.401Z,67.32
2023-04-02T19:46:56.322Z,67.70
2023-04-02T19:49:26.215Z,67.37
2023-04-02T19:51:53.834Z,67.47
2023-04-02T19:54:20.731Z,67.87
2023-04-02T19:56:47.680Z,67.71
2023-04-02T19:59:18.101Z,68.09
2023-04-02T20:01:45.768Z,68.22
2023-04-02T20:04:12.753Z,68.10
2023-04-02T20:06:39.594Z,68.26
2023-04-02T20:09:07.791Z,68.05
2023-04-02T20:11:35.356Z,68.29
2023-04-02T20:14:02.186Z,68.05
2023-04-02T20:16:29.105Z,67.97
2023-04-02T20:22:14.995Z,68.23
2023-04-02T20:24:42.906Z,68.37
2023-04-02T20:27:09.689Z,68.43
2023-04-02T20:29:36.908Z,68.46
2023-04-02T20:32:03.720Z,68.35
2023-04-02T20:34:30.826Z,68.68
2023-04-02T20:36:58.181Z,68.62
2023-04-02T20:39:25.097Z,68.62
2023-04-02T20:41:52.070Z,68.66
2023-04-02T20:44:18.935Z,68.69
2023-04-02T20:46:45.756Z,68.74
2023-04-02T20:49:12.549Z,68.54
2023-04-02T20:51:39.339Z,68.75
2023-04-02T20:54:06.166Z,68.91
2023-04-02T20:56:33.200Z,68.84
2023-04-02T20:59:00.104Z,68.97
2023-04-02T21:01:28.058Z,69.27
2023-04-02T21:03:55.930Z,69.43
2023-04-02T21:06:23.472Z,69.34
2023-04-02T21:08:50.334Z,69.37
2023-04-02T21:11:17.431Z,69.36
2023-04-02T21:13:44.482Z,69.34
2023-04-02T21:16:22.033Z,69.58
2023-04-02T21:18:49.720Z,69.74
2023-04-02T21:21:16.729Z,69.77
2023-04-02T21:23:43.985Z,69.68
2023-04-02T21:26:16.050Z,69.61
2023-04-02T21:28:43.126Z,70.10
2023-04-02T21:31:11.361Z,69.92
2023-04-02T21:33:39.318Z,70.21
2023-04-02T21:36:09.791Z,70.17
2023-04-02T21:38:38.442Z,70.31
2023-04-02T21:41:16.107Z,70.51
2023-04-02T21:43:43.544Z,70.88
2023-04-02T21:46:10.573Z,70.70
2023-04-02T21:48:37.523Z,70.88
2023-04-02T21:51:23.743Z,71.09
2023-04-02T21:53:50.844Z,71.15
2023-04-02T21:56:19.114Z,71.37
2023-04-02T21:58:47.445Z,71.21
2023-04-02T22:01:26.078Z,71.43
2023-04-02T22:03:54.286Z,71.45
2023-04-02T22:06:21.950Z,71.56
2023-04-02T22:08:52.626Z,71.64
2023-04-02T22:11:21.146Z,71.54
2023-04-02T22:13:48.386Z,71.79
2023-04-02T22:16:16.302Z,71.81
2023-04-02T22:18:43.446Z,71.89
2023-04-02T22:21:10.441Z,71.91
2023-04-02T22:23:37.576Z,72.04
2023-04-02T22:26:04.608Z,71.98
2023-04-02T22:28:32.013Z,71.99
2023-04-02T22:31:03.943Z,72.00
2023-04-02T22:33:32.601Z,72.11
2023-04-02T22:35:59.474Z,72.17
2023-04-02T22:38:26.446Z,72.27
2023-04-02T22:40:53.177Z,72.02
2023-04-02T22:43:20.172Z,72.15
2023-04-02T22:45:47.484Z,72.41
2023-04-02T22:48:14.327Z,72.08
2023-04-02T22:50:41.337Z,72.10
2023-04-02T22:53:08.189Z,72.27
2023-04-02T22:55:35.008Z,72.41
2023-04-02T22:58:01.888Z,72.19
2023-04-02T23:00:29.096Z,72.21
2023-04-02T23:02:56.392Z,72.16
2023-04-02T23:05:23.208Z,72.21
2023-04-02T23:07:50.223Z,72.24
2023-04-02T23:10:17.184Z,72.38
2023-04-02T23:12:43.960Z,72.37
2023-04-02T23:15:11.022Z,72.47
2023-04-02T23:17:38.549Z,72.57
2023-04-02T23:20:05.935Z,72.60
2023-04-02T23:22:32.733Z,72.50
2023-04-02T23:24:59.944Z,72.76
2023-04-02T23:27:26.914Z,72.63
2023-04-02T23:29:53.754Z,72.71
2023-04-02T23:32:21.201Z,72.96
2023-04-02T23:34:48.084Z,72.72
2023-04-02T23:37:15.283Z,72.74
2023-04-02T23:39:42.166Z,72.68
2023-04-02T23:42:09.763Z,72.99
2023-04-02T23:44:36.645Z,72.76
2023-04-02T23:47:03.498Z,73.09
2023-04-02T23:49:30.556Z,72.84
2023-04-02T23:51:58.090Z,72.70
2023-04-02T23:54:24.981Z,72.86
2023-04-02T23:56:51.814Z,72.97
2023-04-02T23:59:18.633Z,73.02
